createdAt,value
2019-02-05T00:04:50.545Z,102165.11
2019-02-05T00:09:53.343Z,102162.11
2019-02-05T00:14:55.859Z,102157.87
2019-02-05T00:19:58.386Z,102154.07
2019-02-05T00:25:00.704Z,102152.78
2019-02-05T00:30:05.035Z,102154.09
2019-02-05T00:35:09.308Z,102157.97
2019-02-05T00:40:12.515Z,102161.39
2019-02-05T00:45:15.801Z,102151.59
2019-02-05T00:50:18.909Z,102143.09
2019-02-05T00:55:21.500Z,102139.23
2019-02-05T01:00:27.238Z,102146.09
2019-02-05T01:05:29.896Z,102139.69
2019-02-05T01:10:32.134Z,102131.56
2019-02-05T01:15:34.413Z,102125.17
2019-02-05T01:20:37.748Z,102120.92
2019-02-05T01:25:40.961Z,102121.75
2019-02-05T01:30:43.460Z,102117.50
2019-02-05T01:35:45.991Z,102108.93
2019-02-05T01:40:48.554Z,102106.78
2019-02-05T01:45:50.759Z,102099.95
2019-02-05T01:50:52.913Z,102084.59
2019-02-05T01:55:55.462Z,102080.29
2019-02-05T02:00:58.258Z,102086.28
2019-02-05T02:06:01.215Z,102084.97
2019-02-05T02:11:03.770Z,102075.98
2019-02-05T02:16:06.207Z,102073.00
2019-02-05T02:21:09.595Z,102072.12
2019-02-05T02:26:11.894Z,102067.41
2019-02-05T02:31:14.880Z,102069.98
2019-02-05T02:36:17.871Z,102066.13
2019-02-05T02:41:20.050Z,102055.90
2019-02-05T02:46:22.577Z,102067.87
2019-02-05T02:51:25.106Z,102065.28
2019-02-05T02:56:28.623Z,102065.67
2019-02-05T03:01:31.472Z,102073.83
2019-02-05T03:06:34.573Z,102078.98
2019-02-05T03:11:38.037Z,102075.98
2019-02-05T03:16:40.465Z,102073.00
2019-02-05T03:21:42.612Z,102064.42
2019-02-05T03:26:45.464Z,102057.16
2019-02-05T03:31:47.974Z,102065.28
2019-02-05T03:36:51.243Z,102053.70
2019-02-05T03:41:53.708Z,102052.42
2019-02-05T03:46:56.685Z,102060.95
2019-02-05T03:52:13.503Z,102056.24
2019-02-05T03:58:02.299Z,102048.09
2019-02-05T04:03:31.747Z,102050.20
2019-02-05T04:09:18.812Z,102053.16
2019-02-05T04:15:11.177Z,102063.85
2019-02-05T04:21:07.540Z,102057.86
2019-02-05T04:26:58.072Z,102059.11
2019-02-05T04:32:38.802Z,102042.44
2019-02-05T04:38:38.959Z,102024.94
2019-02-05T04:44:23.530Z,102028.81
2019-02-05T04:50:07.741Z,102032.76
2019-02-05T04:56:13.458Z,102046.01
2019-02-05T05:01:47.010Z,102045.22
2019-02-05T05:07:23.914Z,102035.41
2019-02-05T05:12:29.075Z,102034.52
2019-02-05T05:17:31.990Z,102037.92
2019-02-05T05:22:34.203Z,102026.80
2019-02-05T05:27:37.797Z,102023.35
2019-02-05T05:32:40.584Z,102018.65
2019-02-05T05:37:43.104Z,102015.66
2019-02-05T05:42:46.304Z,102019.47
2019-02-05T05:47:48.482Z,102026.74
2019-02-05T05:52:51.463Z,102024.60
2019-02-05T05:57:54.311Z,102027.56
2019-02-05T06:02:57.416Z,102023.32
2019-02-05T06:07:59.982Z,102023.72
2019-02-05T06:13:02.665Z,102030.13
2019-02-05T06:18:05.895Z,102034.41
2019-02-05T06:23:08.661Z,102033.13
2019-02-05T06:28:10.825Z,102034.34
2019-02-05T06:33:12.971Z,102033.06
2019-02-05T06:38:15.961Z,102035.16
2019-02-05T06:43:18.125Z,102036.41
2019-02-05T06:48:20.570Z,102036.41
2019-02-05T06:53:23.934Z,102043.65
2019-02-05T06:58:26.256Z,102042.37
2019-02-05T07:03:28.921Z,102050.45
2019-02-05T07:08:31.220Z,102061.55
2019-02-05T07:13:33.453Z,102071.78
2019-02-05T07:18:36.067Z,102081.20
2019-02-05T07:23:38.255Z,102085.02
2019-02-05T07:28:40.567Z,102092.28
2019-02-05T07:33:43.039Z,102086.72
2019-02-05T07:38:45.379Z,102094.39
2019-02-05T07:43:48.027Z,102096.10
2019-02-05T07:48:50.418Z,102103.34
2019-02-05T07:53:52.911Z,102096.49
2019-02-05T07:58:55.183Z,102101.59
2019-02-05T08:03:57.988Z,102093.00
2019-02-05T08:09:00.343Z,102100.66
2019-02-05T08:14:06.188Z,102100.59
2019-02-05T08:19:08.504Z,102098.02
2019-02-05T08:24:11.021Z,102101.83
2019-02-05T08:29:21.309Z,102091.13
2019-02-05T08:34:18.216Z,102107.36
2019-02-05T08:39:20.385Z,102116.73
2019-02-05T08:44:22.608Z,102109.84
2019-02-05T08:49:24.815Z,102108.94
2019-02-05T08:54:28.142Z,102125.17
2019-02-05T08:59:30.751Z,102133.27
2019-02-05T09:04:33.422Z,102129.84
2019-02-05T09:09:35.695Z,102135.76
2019-02-05T09:14:38.599Z,102137.86
2019-02-05T09:19:41.415Z,102150.61
2019-02-05T09:24:45.058Z,102147.14
2019-02-05T09:29:47.360Z,102151.42
2019-02-05T09:34:49.555Z,102148.34
2019-02-05T09:39:51.733Z,102161.61
2019-02-05T09:44:53.917Z,102153.48
2019-02-05T09:49:56.186Z,102156.00
2019-02-05T09:54:58.779Z,102159.04
2019-02-05T10:00:02.044Z,102163.72
2019-02-05T10:05:07.917Z,102176.99
2019-02-05T10:10:13.262Z,102176.52
2019-02-05T10:15:19.371Z,102176.05
2019-02-05T10:20:23.372Z,102173.86
2019-02-05T10:25:25.855Z,102182.38
2019-02-05T10:30:40.637Z,102175.04
2019-02-05T10:35:43.195Z,102177.94
2019-02-05T10:40:45.537Z,102180.08
2019-02-05T10:45:47.949Z,102172.31
2019-02-05T10:50:50.542Z,102172.78
2019-02-05T10:55:53.428Z,102165.86
2019-02-05T11:00:55.583Z,102173.92
2019-02-05T11:05:58.415Z,102170.48
2019-02-05T11:11:01.439Z,102169.58
2019-02-05T11:16:05.045Z,102166.94
2019-02-05T11:21:07.235Z,102160.05
2019-02-05T11:26:09.808Z,102165.16
2019-02-05T11:31:12.418Z,102156.94
2019-02-05T11:36:14.668Z,102162.84
2019-02-05T11:41:17.799Z,102161.97
2019-02-05T11:46:20.684Z,102169.64
2019-02-05T11:51:22.877Z,102170.00
2019-02-05T11:56:28.122Z,102174.53
2019-02-05T12:01:38.845Z,102177.91
2019-02-05T12:06:37.858Z,102177.03
2019-02-05T12:11:40.700Z,102169.76
2019-02-05T12:16:43.406Z,102165.81
2019-02-05T12:21:46.527Z,102160.58
2019-02-05T12:26:48.856Z,102161.94
2019-02-05T12:31:51.129Z,102162.81
2019-02-05T12:36:53.299Z,102159.73
2019-02-05T12:41:55.920Z,102159.66
2019-02-05T12:46:58.308Z,102158.72
2019-02-05T12:52:00.756Z,102154.44
2019-02-05T12:57:03.475Z,102153.03
2019-02-05T13:02:05.985Z,102161.66
2019-02-05T13:07:09.073Z,102157.30
2019-02-05T13:12:11.849Z,102159.03
2019-02-05T13:17:14.075Z,102162.03
2019-02-05T13:22:16.934Z,102167.12
2019-02-05T13:27:19.898Z,102168.10
2019-02-05T13:32:23.393Z,102175.77
2019-02-05T13:37:26.985Z,102180.48
2019-02-05T13:42:29.835Z,102186.81
2019-02-05T13:47:33.927Z,102183.38
2019-02-05T13:52:38.978Z,102182.00
2019-02-05T13:57:42.177Z,102188.45
2019-02-05T14:02:44.548Z,102191.02
2019-02-05T14:07:47.560Z,102186.73
2019-02-05T14:12:50.488Z,102191.88
2019-02-05T14:17:53.600Z,102193.55
2019-02-05T14:22:56.680Z,102197.41
2019-02-05T14:27:59.411Z,102189.28
2019-02-05T14:33:02.220Z,102197.83
2019-02-05T14:38:07.195Z,102207.65
2019-02-05T14:43:10.837Z,102207.13
2019-02-05T14:48:14.243Z,102209.28
2019-02-05T14:53:16.516Z,102212.79
2019-02-05T14:58:19.445Z,102215.38
2019-02-05T15:03:22.658Z,102226.06
2019-02-05T15:08:25.151Z,102231.69
2019-02-05T15:13:27.345Z,102241.58
2019-02-05T15:18:30.641Z,102246.32
2019-02-05T15:23:33.414Z,102240.78
2019-02-05T15:28:36.767Z,102230.92
2019-02-05T15:33:44.730Z,102230.05
2019-02-05T15:38:47.887Z,102230.84
2019-02-05T15:43:51.793Z,102233.86
2019-02-05T15:48:54.083Z,102234.72
2019-02-05T15:53:58.639Z,102238.20
2019-02-05T15:59:02.139Z,102237.37
2019-02-05T16:04:05.536Z,102243.00
2019-02-05T16:09:10.322Z,102245.09
2019-02-05T16:14:13.145Z,102245.52
2019-02-05T16:19:15.314Z,102252.38
2019-02-05T16:24:17.566Z,102254.98
2019-02-05T16:29:21.389Z,102264.48
2019-02-05T16:34:23.571Z,102263.14
2019-02-05T16:39:26.186Z,102265.71
2019-02-05T16:44:28.409Z,102267.02
2019-02-05T16:49:30.725Z,102265.72
2019-02-05T16:54:32.877Z,102274.42
2019-02-05T16:59:35.107Z,102276.52
2019-02-05T17:04:37.353Z,102279.52
2019-02-05T17:09:40.086Z,102280.80
2019-02-05T17:14:42.414Z,102288.07
2019-02-05T17:19:44.591Z,102286.45
2019-02-05T17:24:47.245Z,102283.87
2019-02-05T17:29:50.459Z,102291.63
2019-02-05T17:34:52.929Z,102294.20
2019-02-05T17:39:55.116Z,102293.77
2019-02-05T17:44:57.338Z,102284.37
2019-02-05T17:49:59.524Z,102285.66
2019-02-05T17:55:01.996Z,102280.08
2019-02-05T18:00:10.865Z,102293.82
2019-02-05T18:05:15.009Z,102283.58
2019-02-05T18:10:20.792Z,102285.43
2019-02-05T18:15:27.239Z,102282.47
2019-02-05T18:20:29.531Z,102280.28
2019-02-05T18:25:31.891Z,102280.33
2019-02-05T18:30:35.213Z,102282.92
2019-02-05T18:35:38.129Z,102282.92
2019-02-05T18:40:41.536Z,102279.48
2019-02-05T18:45:43.727Z,102279.91
2019-02-05T18:50:46.302Z,102287.70
2019-02-05T18:55:48.610Z,102291.14
2019-02-05T19:00:51.011Z,102288.13
2019-02-05T19:05:53.239Z,102299.66
2019-02-05T19:10:55.358Z,102292.84
2019-02-05T19:15:57.848Z,102298.81
2019-02-05T19:21:00.245Z,102299.67
2019-02-05T19:26:12.345Z,102299.23
2019-02-05T19:31:36.715Z,102307.41
2019-02-05T19:36:39.508Z,102313.03
2019-02-05T19:41:41.988Z,102307.02
2019-02-05T19:46:56.051Z,102310.03
2019-02-05T19:51:59.026Z,102312.17
2019-02-05T19:57:01.721Z,102316.94
2019-02-05T20:02:04.422Z,102316.48
2019-02-05T20:07:07.087Z,102318.63
2019-02-05T20:12:09.893Z,102319.05
2019-02-05T20:17:12.838Z,102325.97
2019-02-05T20:22:15.299Z,102317.38
2019-02-05T20:27:17.551Z,102319.95
2019-02-05T20:32:20.103Z,102320.88
2019-02-05T20:37:22.864Z,102326.46
2019-02-05T20:42:26.327Z,102329.94
2019-02-05T20:47:28.468Z,102332.51
2019-02-05T20:52:30.973Z,102323.89
2019-02-05T20:57:33.144Z,102337.23
2019-02-05T21:02:35.752Z,102333.74
2019-02-05T21:07:38.466Z,102339.33
2019-02-05T21:12:41.070Z,102336.76
2019-02-05T21:17:43.405Z,102344.44
2019-02-05T21:22:47.855Z,102346.63
2019-02-05T21:27:50.544Z,102350.02
2019-02-05T21:32:54.382Z,102360.73
2019-02-05T21:37:57.266Z,102364.61
2019-02-05T21:42:59.854Z,102366.33
2019-02-05T21:48:02.351Z,102363.38
2019-02-05T21:53:04.853Z,102358.72
2019-02-05T21:58:07.118Z,102363.42
2019-02-05T22:03:09.744Z,102364.28
2019-02-05T22:08:12.421Z,102374.64
2019-02-05T22:13:15.128Z,102375.50
2019-02-05T22:18:17.346Z,102368.21
2019-02-05T22:23:20.087Z,102367.34
2019-02-05T22:28:22.226Z,102367.34
2019-02-05T22:33:27.991Z,102362.14
2019-02-05T22:38:29.261Z,102360.04
2019-02-05T22:43:31.549Z,102356.23
2019-02-05T22:48:33.725Z,102358.00
2019-02-05T22:53:36.289Z,102372.98
2019-02-05T22:58:39.431Z,102361.42
2019-02-05T23:03:47.647Z,102362.34
2019-02-05T23:08:51.201Z,102369.64
2019-02-05T23:13:54.367Z,102369.69
2019-02-05T23:18:57.564Z,102370.55
2019-02-05T23:23:59.956Z,102379.56
2019-02-05T23:29:02.164Z,102381.69
2019-02-05T23:34:05.143Z,102380.38
2019-02-05T23:39:08.636Z,102372.17
2019-02-05T23:44:12.789Z,102384.66
2019-02-05T23:49:15.296Z,102388.95
2019-02-05T23:54:18.063Z,102382.89
2019-02-05T23:59:20.852Z,102386.37
